Aviation Digital Data Service (ADDS)

Output produced by METARs form (1256 UTC 08 May 2021)
found at http://aviationweather.gov/metar/data/
 
KGLS 081252Z 17013KT 10SM BKN015 24/20 A3003 RMK AO2 SLP170 T02440200
KGLS 081247Z 17016KT 10SM BKN016 24/20 A3003 RMK AO2
KGLS 081251Z 0813/0912 17016KT P6SM BKN015 
     FM081500 16017KT P6SM SCT030 
     FM082300 18018G28KT P6SM SCT030